createdAt,value
2018-09-22T00:02:19.336Z,99685.64
2018-09-22T00:04:48.060Z,99696.81
2018-09-22T00:07:17.440Z,99693.78
2018-09-22T00:09:46.314Z,99720.31
2018-09-22T00:12:15.264Z,99732.80
2018-09-22T00:14:44.205Z,99742.09
2018-09-22T00:17:13.069Z,99722.19
2018-09-22T00:19:42.164Z,99727.11
2018-09-22T00:22:17.138Z,99729.41
2018-09-22T00:24:45.860Z,99732.06
2018-09-22T00:27:14.415Z,99740.11
2018-09-22T00:29:43.048Z,99749.86
2018-09-22T00:32:11.786Z,99741.52
2018-09-22T00:34:40.328Z,99747.77
2018-09-22T00:37:08.905Z,99741.69
2018-09-22T00:39:37.631Z,99752.38
2018-09-22T00:42:06.990Z,99752.77
2018-09-22T00:44:35.701Z,99750.20
2018-09-22T00:47:04.526Z,99748.87
2018-09-22T00:49:33.225Z,99757.38
2018-09-22T00:52:02.365Z,99755.67
2018-09-22T00:54:31.085Z,99764.95
2018-09-22T00:56:59.662Z,99757.08
2018-09-22T00:59:28.737Z,99764.56
2018-09-22T01:01:58.437Z,99767.30
2018-09-22T01:04:27.028Z,99765.42
2018-09-22T01:06:55.775Z,99774.41
2018-09-22T01:09:24.462Z,99771.84
2018-09-22T01:11:53.194Z,99783.50
2018-09-22T01:14:21.778Z,99776.48
2018-09-22T01:16:50.644Z,99776.56
2018-09-22T01:19:19.181Z,99781.09
2018-09-22T01:21:48.007Z,99783.44
2018-09-22T01:24:16.800Z,99787.42
2018-09-22T01:26:45.329Z,99794.44
2018-09-22T01:29:16.319Z,99782.03
2018-09-22T01:31:45.600Z,99777.75
2018-09-22T01:34:14.341Z,99802.47
2018-09-22T01:36:43.997Z,99793.82
2018-09-22T01:39:13.816Z,99810.67
2018-09-22T01:41:42.637Z,99811.61
2018-09-22T01:44:11.574Z,99818.70
2018-09-22T01:46:40.231Z,99826.66
2018-09-22T01:49:08.776Z,99855.09
2018-09-22T01:51:37.335Z,99874.12
2018-09-22T01:54:06.219Z,99865.39
2018-09-22T01:56:35.015Z,99845.89
2018-09-22T01:59:04.624Z,99851.34
2018-09-22T02:01:33.304Z,99857.28
2018-09-22T02:04:01.935Z,99866.71
2018-09-22T02:06:30.674Z,99863.75
2018-09-22T02:09:00.421Z,99870.77
2018-09-22T02:11:29.058Z,99879.66
2018-09-22T02:13:57.669Z,99885.15
2018-09-22T02:16:26.364Z,99903.86
2018-09-22T02:18:54.845Z,99905.19
2018-09-22T02:21:23.533Z,99905.73
2018-09-22T02:23:52.161Z,99909.63
2018-09-22T02:26:20.831Z,99910.09
2018-09-22T02:28:49.457Z,99903.70
2018-09-22T02:31:18.203Z,99915.24
2018-09-22T02:33:46.765Z,99903.70
2018-09-22T02:36:15.337Z,99886.83
2018-09-22T02:38:44.070Z,99897.08
2018-09-22T02:41:12.597Z,99914.31
2018-09-22T02:43:41.225Z,99928.03
2018-09-22T02:46:09.947Z,99917.11
2018-09-22T02:48:38.661Z,99904.88
2018-09-22T02:51:08.029Z,99919.77
2018-09-22T02:53:36.835Z,99922.57
2018-09-22T02:56:05.391Z,99926.30
2018-09-22T02:58:34.522Z,99940.34
2018-09-22T03:01:03.730Z,99931.53
2018-09-22T03:03:32.461Z,99927.70
2018-09-22T03:06:01.211Z,99922.09
2018-09-22T03:08:30.001Z,99926.25
2018-09-22T03:10:58.582Z,99929.37
2018-09-22T03:13:28.224Z,99925.86
2018-09-22T03:15:56.977Z,99932.17
2018-09-22T03:18:25.569Z,99944.71
2018-09-22T03:20:54.107Z,99949.94
2018-09-22T03:23:22.875Z,99950.01
2018-09-22T03:25:51.741Z,99958.50
2018-09-22T03:28:20.332Z,99962.63
2018-09-22T03:30:48.923Z,99961.45
2018-09-22T03:33:17.457Z,99958.97
2018-09-22T03:35:46.043Z,99961.84
2018-09-22T03:38:15.315Z,99971.27
2018-09-22T03:40:43.903Z,99965.18
2018-09-22T03:43:12.577Z,99972.66
2018-09-22T03:45:41.155Z,99983.41
2018-09-22T03:48:09.705Z,99986.98
2018-09-22T03:50:38.235Z,99976.78
2018-09-22T03:53:06.873Z,99987.77
2018-09-22T03:55:35.465Z,99996.11
2018-09-22T03:58:04.042Z,99992.20
2018-09-22T04:00:32.798Z,99990.48
2018-09-22T04:03:01.275Z,99992.85
2018-09-22T04:05:29.776Z,99986.23
2018-09-22T04:07:58.561Z,99989.88
2018-09-22T04:10:27.094Z,99996.17
2018-09-22T04:12:55.679Z,100004.73
2018-09-22T04:15:24.407Z,100008.38
2018-09-22T04:17:52.922Z,100012.89
2018-09-22T04:20:21.645Z,100008.70
2018-09-22T04:22:50.813Z,100011.81
2018-09-22T04:25:19.346Z,100024.98
2018-09-22T04:27:47.877Z,100019.29
2018-09-22T04:30:16.579Z,100020.15
2018-09-22T04:32:45.221Z,100026.30
2018-09-22T04:35:13.714Z,100022.88
2018-09-22T04:37:42.430Z,100018.70
2018-09-22T04:40:11.006Z,100023.85
2018-09-22T04:42:39.592Z,100036.70
2018-09-22T04:45:08.392Z,100032.98
2018-09-22T04:47:36.953Z,100030.69
2018-09-22T04:50:05.528Z,100031.73
2018-09-22T04:52:34.384Z,100028.41
2018-09-22T04:55:03.192Z,100037.06
2018-09-22T04:57:32.226Z,100040.18
2018-09-22T05:00:01.050Z,100027.40
2018-09-22T05:02:29.714Z,100042.12
2018-09-22T05:04:58.276Z,100042.98
2018-09-22T05:07:27.065Z,100045.62
2018-09-22T05:10:02.281Z,100046.95
2018-09-22T05:12:31.581Z,100051.79
2018-09-22T05:15:00.213Z,100055.44
2018-09-22T05:17:29.181Z,100054.69
2018-09-22T05:19:57.937Z,100059.98
2018-09-22T05:22:26.500Z,100061.77
2018-09-22T05:24:55.096Z,100064.56
2018-09-22T05:27:23.941Z,100065.10
2018-09-22T05:29:52.705Z,100069.94
2018-09-22T05:32:21.425Z,100069.61
2018-09-22T05:34:50.229Z,100070.80
2018-09-22T05:37:19.115Z,100068.14
2018-09-22T05:39:47.731Z,100069.14
2018-09-22T05:42:17.694Z,100065.70
2018-09-22T05:44:46.385Z,100070.61
2018-09-22T05:47:15.442Z,100077.37
2018-09-22T05:49:45.304Z,100084.63
2018-09-22T05:52:13.801Z,100082.52
2018-09-22T05:54:42.665Z,100077.69
2018-09-22T05:57:11.795Z,100075.11
2018-09-22T05:59:40.515Z,100086.23
2018-09-22T06:02:09.363Z,100084.91
2018-09-22T06:04:38.077Z,100082.59
2018-09-22T06:07:06.659Z,100085.31
2018-09-22T06:09:35.360Z,100089.53
2018-09-22T06:12:04.035Z,100081.98
2018-09-22T06:14:32.917Z,100085.64
2018-09-22T06:17:01.678Z,100083.51
2018-09-22T06:19:30.830Z,100085.02
2018-09-22T06:21:59.570Z,100077.00
2018-09-22T06:24:28.528Z,100080.36
2018-09-22T06:26:58.427Z,100083.36
2018-09-22T06:29:27.190Z,100080.78
2018-09-22T06:31:55.826Z,100089.00
2018-09-22T06:34:24.836Z,100093.36
2018-09-22T06:36:54.497Z,100079.06
2018-09-22T06:39:23.076Z,100098.16
2018-09-22T06:41:53.022Z,100098.20
2018-09-22T06:44:21.569Z,100090.64
2018-09-22T06:46:50.210Z,100085.38
2018-09-22T06:49:18.978Z,100092.02
2018-09-22T06:51:47.519Z,100084.20
2018-09-22T06:54:17.285Z,100081.20
2018-09-22T06:56:46.094Z,100083.70
2018-09-22T06:59:14.713Z,100084.55
2018-09-22T07:01:43.344Z,100100.12
2018-09-22T07:04:12.162Z,100091.76
2018-09-22T07:06:41.842Z,100085.31
2018-09-22T07:09:10.481Z,100093.78
2018-09-22T07:11:39.373Z,100085.81
2018-09-22T07:14:08.096Z,100094.20
2018-09-22T07:16:36.725Z,100105.14
2018-09-22T07:19:05.610Z,100099.11
2018-09-22T07:21:39.501Z,100100.86
2018-09-22T07:24:08.218Z,100107.17
2018-09-22T07:26:36.761Z,100105.37
2018-09-22T07:29:05.260Z,100091.22
2018-09-22T07:31:34.116Z,100093.52
2018-09-22T07:34:02.731Z,100107.58
2018-09-22T07:36:31.422Z,100099.36
2018-09-22T07:39:00.253Z,100099.33
2018-09-22T07:41:28.856Z,100095.34
2018-09-22T07:43:57.618Z,100109.88
2018-09-22T07:46:26.546Z,100106.58
2018-09-22T07:48:55.117Z,100119.17
2018-09-22T07:51:23.678Z,100101.49
2018-09-22T07:53:53.435Z,100102.27
2018-09-22T07:56:23.040Z,100115.95
2018-09-22T07:58:51.890Z,100107.25
2018-09-22T08:01:20.626Z,100135.78
2018-09-22T08:03:49.195Z,100118.32
2018-09-22T08:06:17.769Z,100117.56
2018-09-22T08:08:47.345Z,100115.11
2018-09-22T08:11:16.102Z,100104.30
2018-09-22T08:13:44.651Z,100102.80
2018-09-22T08:16:13.386Z,100093.34
2018-09-22T08:18:41.895Z,100084.02
2018-09-22T08:21:10.583Z,100100.28
2018-09-22T08:23:40.174Z,100099.45
2018-09-22T08:26:09.228Z,100107.47
2018-09-22T08:28:37.815Z,100106.81
2018-09-22T08:31:06.789Z,100089.59
2018-09-22T08:33:35.489Z,100106.22
2018-09-22T08:36:04.221Z,100105.77
2018-09-22T08:38:32.931Z,100097.83
2018-09-22T08:41:01.514Z,100123.32
2018-09-22T08:43:30.033Z,100119.05
2018-09-22T08:45:59.445Z,100097.22
2018-09-22T08:48:28.093Z,100114.10
2018-09-22T08:50:56.777Z,100115.33
2018-09-22T08:53:25.419Z,100117.42
2018-09-22T08:55:54.018Z,100107.22
2018-09-22T08:58:22.773Z,100114.61
2018-09-22T09:00:51.781Z,100085.03
2018-09-22T09:03:21.186Z,100117.34
2018-09-22T09:05:49.920Z,100096.41
2018-09-22T09:08:18.869Z,100109.84
2018-09-22T09:10:49.150Z,100111.69
2018-09-22T09:13:18.168Z,100113.60
2018-09-22T09:15:47.212Z,100099.22
2018-09-22T09:18:15.828Z,100100.47
2018-09-22T09:20:45.591Z,100102.38
2018-09-22T09:23:14.282Z,100108.09
2018-09-22T09:25:42.802Z,100116.55
2018-09-22T09:28:12.914Z,100123.59
2018-09-22T09:30:41.991Z,100126.35
2018-09-22T09:33:12.237Z,100127.42
2018-09-22T09:35:40.998Z,100131.34
2018-09-22T09:38:09.916Z,100122.11
2018-09-22T09:40:38.535Z,100113.42
2018-09-22T09:43:07.700Z,100106.75
2018-09-22T09:45:36.677Z,100118.57
2018-09-22T09:48:05.178Z,100113.80
2018-09-22T09:50:34.053Z,100108.36
2018-09-22T09:53:04.230Z,100098.57
2018-09-22T09:55:32.834Z,100111.81
2018-09-22T09:58:02.482Z,100114.81
2018-09-22T10:00:36.495Z,100108.27
2018-09-22T10:03:05.081Z,100134.65
2018-09-22T10:05:33.735Z,100101.25
2018-09-22T10:08:02.391Z,100101.22
2018-09-22T10:10:30.995Z,100112.08
2018-09-22T10:12:59.721Z,100094.56
2018-09-22T10:15:28.282Z,100106.15
2018-09-22T10:17:56.967Z,100106.77
2018-09-22T10:20:25.678Z,100082.98
2018-09-22T10:22:54.292Z,100100.34
2018-09-22T10:25:22.942Z,100085.11
2018-09-22T10:27:52.607Z,100099.10
2018-09-22T10:30:21.214Z,100107.59
2018-09-22T10:32:51.031Z,100125.55
2018-09-22T10:35:19.752Z,100097.45
2018-09-22T10:37:49.289Z,100117.39
2018-09-22T10:40:17.947Z,100118.91
2018-09-22T10:42:46.694Z,100122.64
2018-09-22T10:45:15.334Z,100135.78
2018-09-22T10:47:44.018Z,100116.84
2018-09-22T10:50:13.581Z,100119.64
2018-09-22T10:52:42.184Z,100122.80
2018-09-22T10:55:10.757Z,100101.48
2018-09-22T10:57:39.246Z,100119.06
2018-09-22T11:00:07.995Z,100119.64
2018-09-22T11:02:36.533Z,100139.72
2018-09-22T11:05:05.487Z,100124.60
2018-09-22T11:07:34.065Z,100114.48
2018-09-22T11:10:02.719Z,100112.66
2018-09-22T11:12:31.296Z,100135.17
2018-09-22T11:15:01.320Z,100141.87
2018-09-22T11:17:30.377Z,100122.99
2018-09-22T11:19:59.304Z,100117.97
2018-09-22T11:22:27.941Z,100114.30
2018-09-22T11:24:56.625Z,100120.25
2018-09-22T11:27:25.279Z,100123.26
2018-09-22T11:29:54.009Z,100138.33
2018-09-22T11:32:23.603Z,100119.25
2018-09-22T11:34:52.436Z,100126.69
2018-09-22T11:37:21.721Z,100111.02
2018-09-22T11:39:50.313Z,100100.90
2018-09-22T11:42:18.903Z,100106.67
2018-09-22T11:44:47.514Z,100111.08
2018-09-22T11:47:16.132Z,100105.23
2018-09-22T11:49:44.764Z,100110.52
2018-09-22T11:52:13.381Z,100122.78
2018-09-22T11:54:42.846Z,100120.62
2018-09-22T11:57:11.534Z,100113.25
2018-09-22T11:59:40.139Z,100119.65
2018-09-22T12:02:08.775Z,100118.50
2018-09-22T12:04:37.500Z,100118.59
2018-09-22T12:07:06.185Z,100126.74
2018-09-22T12:09:34.894Z,100119.98
2018-09-22T12:12:03.576Z,100107.42
2018-09-22T12:14:32.123Z,100116.77
2018-09-22T12:17:00.674Z,100112.73
2018-09-22T12:19:29.270Z,100129.48
2018-09-22T12:21:57.934Z,100105.80
2018-09-22T12:24:26.589Z,100112.13
2018-09-22T12:26:55.159Z,100121.01
2018-09-22T12:29:24.337Z,100118.45
2018-09-22T12:31:53.047Z,100104.47
2018-09-22T12:34:21.703Z,100107.59
2018-09-22T12:36:50.393Z,100103.88
2018-09-22T12:39:19.981Z,100111.28
2018-09-22T12:41:48.682Z,100103.51
2018-09-22T12:44:17.470Z,100092.50
2018-09-22T12:46:46.083Z,100095.44
2018-09-22T12:49:14.691Z,100090.64
2018-09-22T12:51:43.345Z,100106.90
2018-09-22T12:54:11.966Z,100096.44
2018-09-22T12:56:40.629Z,100095.91
2018-09-22T12:59:09.550Z,100095.78
2018-09-22T13:01:38.214Z,100097.52
2018-09-22T13:04:06.847Z,100102.72
2018-09-22T13:06:35.453Z,100107.63
2018-09-22T13:09:05.280Z,100102.02
2018-09-22T13:11:36.238Z,100110.64
2018-09-22T13:14:05.306Z,100106.56
2018-09-22T13:16:34.237Z,100098.34
2018-09-22T13:19:02.966Z,100096.03
2018-09-22T13:21:31.549Z,100109.78
2018-09-22T13:24:00.174Z,100107.96
2018-09-22T13:26:28.878Z,100115.44
2018-09-22T13:28:57.553Z,100110.73
2018-09-22T13:31:26.266Z,100093.47
2018-09-22T13:33:54.935Z,100096.50
2018-09-22T13:36:23.711Z,100098.59
2018-09-22T13:38:52.233Z,100085.96
2018-09-22T13:41:20.969Z,100087.22
2018-09-22T13:43:49.616Z,100070.54
2018-09-22T13:46:18.491Z,100082.11
2018-09-22T13:48:47.236Z,100078.09
2018-09-22T13:51:15.955Z,100077.25
2018-09-22T13:53:44.545Z,100083.28
2018-09-22T13:56:13.202Z,100085.95
2018-09-22T13:58:41.863Z,100079.08
2018-09-22T14:01:11.498Z,100076.57
2018-09-22T14:03:41.411Z,100078.11
2018-09-22T14:06:10.893Z,100075.84
2018-09-22T14:08:39.601Z,100080.82
2018-09-22T14:11:08.351Z,100080.14
2018-09-22T14:13:36.977Z,100083.02
2018-09-22T14:16:05.572Z,100075.32
2018-09-22T14:18:34.942Z,100077.85
2018-09-22T14:21:03.584Z,100072.14
2018-09-22T14:23:33.307Z,100073.29
2018-09-22T14:26:02.042Z,100074.72
2018-09-22T14:28:30.750Z,100069.73
2018-09-22T14:30:59.557Z,100075.94
2018-09-22T14:33:28.380Z,100073.31
2018-09-22T14:35:57.013Z,100070.03
2018-09-22T14:38:25.638Z,100079.05
2018-09-22T14:40:54.373Z,100065.89
2018-09-22T14:43:23.125Z,100071.59
2018-09-22T14:45:51.816Z,100066.73
2018-09-22T14:48:21.159Z,100072.76
2018-09-22T14:50:50.584Z,100067.22
2018-09-22T14:53:19.900Z,100068.69
2018-09-22T14:55:48.672Z,100062.49
2018-09-22T14:58:17.404Z,100059.78
2018-09-22T15:00:46.052Z,100062.84
2018-09-22T15:03:14.837Z,100064.95
2018-09-22T15:05:43.335Z,100064.89
2018-09-22T15:08:12.090Z,100052.35
2018-09-22T15:10:40.954Z,100054.95
2018-09-22T15:13:09.573Z,100057.13
2018-09-22T15:15:38.132Z,100061.26
2018-09-22T15:18:06.992Z,100058.13
2018-09-22T15:20:36.125Z,100058.38
2018-09-22T15:23:04.833Z,100059.73
2018-09-22T15:25:33.561Z,100060.33
2018-09-22T15:28:02.202Z,100071.81
2018-09-22T15:30:31.881Z,100066.97
2018-09-22T15:33:00.612Z,100078.63
2018-09-22T15:35:30.384Z,100092.34
2018-09-22T15:37:58.904Z,100075.86
2018-09-22T15:40:27.675Z,100070.18
2018-09-22T15:42:56.591Z,100071.70
2018-09-22T15:45:26.092Z,100079.89
2018-09-22T15:47:54.802Z,100077.25
2018-09-22T15:50:23.383Z,100079.44
2018-09-22T15:52:52.021Z,100077.52
2018-09-22T15:55:20.731Z,100070.80
2018-09-22T15:57:49.521Z,100064.88
2018-09-22T16:00:18.179Z,100061.73
2018-09-22T16:02:46.990Z,100058.96
2018-09-22T16:05:15.537Z,100053.81
2018-09-22T16:07:44.107Z,100058.95
2018-09-22T16:10:13.476Z,100056.56
2018-09-22T16:12:41.994Z,100065.80
2018-09-22T16:15:11.717Z,100058.38
2018-09-22T16:17:40.526Z,100054.66
2018-09-22T16:20:10.213Z,100057.03
2018-09-22T16:22:38.911Z,100049.25
2018-09-22T16:25:07.879Z,100056.47
2018-09-22T16:27:36.856Z,100045.62
2018-09-22T16:30:05.915Z,100053.41
2018-09-22T16:32:34.669Z,100046.75
2018-09-22T16:35:03.500Z,100043.12
2018-09-22T16:37:32.260Z,100048.23
2018-09-22T16:40:01.142Z,100048.23
2018-09-22T16:42:30.726Z,100043.83
2018-09-22T16:44:59.250Z,100055.41
2018-09-22T16:47:27.918Z,100060.70
2018-09-22T16:49:56.556Z,100052.67
2018-09-22T16:53:31.825Z,100060.95
2018-09-22T16:56:00.693Z,100062.14
2018-09-22T16:58:30.565Z,100062.31
2018-09-22T17:00:59.209Z,100067.41
2018-09-22T17:03:27.843Z,100066.81
2018-09-22T17:05:56.528Z,100067.06
2018-09-22T17:08:25.385Z,100065.13
2018-09-22T17:10:54.035Z,100065.33
2018-09-22T17:13:22.612Z,100067.22
2018-09-22T17:15:51.424Z,100069.18
2018-09-22T17:18:19.988Z,100061.20
2018-09-22T17:23:24.103Z,100058.47
2018-09-22T17:25:52.784Z,100059.33
2018-09-22T17:28:21.327Z,100065.97
2018-09-22T17:30:50.038Z,100062.92
2018-09-22T17:33:18.698Z,100067.85
2018-09-22T17:35:47.729Z,100069.34
2018-09-22T17:38:16.746Z,100067.72
2018-09-22T17:40:45.536Z,100078.98
2018-09-22T17:43:14.066Z,100075.74
2018-09-22T17:45:42.808Z,100080.45
2018-09-22T17:48:12.435Z,100083.82
2018-09-22T17:50:42.332Z,100080.11
2018-09-22T17:53:11.018Z,100067.54
2018-09-22T17:55:39.716Z,100074.65
2018-09-22T17:58:08.324Z,100063.25
2018-09-22T18:00:37.218Z,100064.34
2018-09-22T18:03:06.770Z,100066.69
2018-09-22T18:05:35.341Z,100064.16
2018-09-22T18:08:04.074Z,100053.14
2018-09-22T18:10:32.803Z,100056.19
2018-09-22T18:13:01.493Z,100069.62
2018-09-22T18:15:30.773Z,100063.14
2018-09-22T18:17:59.406Z,100061.12
2018-09-22T18:20:28.197Z,100063.08
2018-09-22T18:22:57.908Z,100054.91
2018-09-22T18:25:27.513Z,100061.32
2018-09-22T18:27:56.111Z,100074.75
2018-09-22T18:30:24.746Z,100087.09
2018-09-22T18:32:53.345Z,100071.70
2018-09-22T18:35:21.943Z,100069.44
2018-09-22T18:37:50.483Z,100072.26
2018-09-22T18:40:20.100Z,100078.66
2018-09-22T18:42:48.811Z,100081.50
2018-09-22T18:45:17.400Z,100068.16
2018-09-22T18:47:45.932Z,100059.48
2018-09-22T18:50:14.523Z,100058.78
2018-09-22T18:52:43.258Z,100061.70
2018-09-22T18:55:11.844Z,100061.78
2018-09-22T18:57:40.391Z,100070.67
2018-09-22T19:00:09.266Z,100085.66
2018-09-22T19:02:37.881Z,100078.09
2018-09-22T19:05:06.521Z,100067.48
2018-09-22T19:07:35.217Z,100057.25
2018-09-22T19:10:03.892Z,100070.84
2018-09-22T19:12:32.707Z,100086.26
2018-09-22T19:15:11.717Z,100094.41
2018-09-22T19:17:48.218Z,100091.91
2018-09-22T19:20:20.185Z,100089.41
2018-09-22T19:22:58.533Z,100082.11
2018-09-22T19:25:29.468Z,100083.12
2018-09-22T19:28:07.536Z,100086.34
2018-09-22T19:30:46.161Z,100081.12
2018-09-22T19:33:25.293Z,100077.29
2018-09-22T19:35:57.233Z,100058.48
2018-09-22T19:38:29.997Z,100058.09
2018-09-22T19:41:02.205Z,100061.67
2018-09-22T19:43:36.053Z,100060.73
2018-09-22T19:46:08.524Z,100058.55
2018-09-22T19:48:47.063Z,100061.52
2018-09-22T19:51:18.970Z,100055.44
2018-09-22T19:53:48.897Z,100049.42
2018-09-22T19:56:17.989Z,100044.11
2018-09-22T19:58:46.680Z,100048.67
2018-09-22T20:01:15.624Z,100054.05
2018-09-22T20:03:44.355Z,100060.83
2018-09-22T20:06:13.171Z,100051.70
2018-09-22T20:08:44.885Z,100063.39
2018-09-22T20:11:13.508Z,100064.40
2018-09-22T20:13:42.260Z,100058.31
2018-09-22T20:16:10.940Z,100054.83
2018-09-22T20:18:39.438Z,100059.17
2018-09-22T20:21:08.209Z,100069.23
2018-09-22T20:23:36.714Z,100063.00
2018-09-22T20:26:05.263Z,100060.66
2018-09-22T20:28:34.101Z,100044.28
2018-09-22T20:31:02.575Z,100037.19
2018-09-22T20:33:31.129Z,100035.00
2018-09-22T20:35:59.783Z,100039.77
2018-09-22T20:38:29.761Z,100043.66
2018-09-22T20:40:58.265Z,100045.06
2018-09-22T20:43:26.978Z,100047.88
2018-09-22T20:45:55.584Z,100033.83
2018-09-22T20:48:24.981Z,100045.37
2018-09-22T20:50:53.857Z,100047.63
2018-09-22T20:53:22.326Z,100052.18
2018-09-22T20:55:50.913Z,100049.89
2018-09-22T20:58:20.184Z,100037.59
2018-09-22T21:00:48.875Z,100043.37
2018-09-22T21:03:17.536Z,100034.16
2018-09-22T21:05:46.408Z,100026.28
2018-09-22T21:08:15.896Z,100025.50
2018-09-22T21:10:44.782Z,100022.92
2018-09-22T21:13:13.500Z,100029.16
2018-09-22T21:15:42.046Z,100023.85
2018-09-22T21:18:10.600Z,100011.28
2018-09-22T21:20:45.695Z,100022.83
2018-09-22T21:23:14.260Z,100027.34
2018-09-22T21:25:43.452Z,100031.31
2018-09-22T21:28:12.403Z,100029.53
2018-09-22T21:30:41.175Z,100029.45
2018-09-22T21:33:10.035Z,100021.89
2018-09-22T21:35:39.481Z,100025.47
2018-09-22T21:38:08.389Z,100033.50
2018-09-22T21:40:37.011Z,100035.30
2018-09-22T21:43:07.004Z,100032.64
2018-09-22T21:45:35.584Z,100029.99
2018-09-22T21:48:04.632Z,100035.30
2018-09-22T21:50:34.294Z,100041.77
2018-09-22T21:53:02.900Z,100038.58
2018-09-22T21:55:31.406Z,100031.41
2018-09-22T21:58:00.048Z,100018.55
2018-09-22T22:00:28.609Z,100025.57
2018-09-22T22:02:57.408Z,100037.43
2018-09-22T22:05:26.130Z,100023.31
2018-09-22T22:07:54.657Z,100020.66
2018-09-22T22:10:23.425Z,100017.15
2018-09-22T22:12:52.386Z,100019.41
2018-09-22T22:15:21.832Z,100019.09
2018-09-22T22:17:50.433Z,100028.38
2018-09-22T22:20:20.520Z,100022.75
2018-09-22T22:22:48.957Z,100017.91
2018-09-22T22:25:17.781Z,100029.92
2018-09-22T22:27:47.109Z,100023.37
2018-09-22T22:30:15.677Z,100023.94
2018-09-22T22:32:44.204Z,100032.83
2018-09-22T22:35:12.923Z,100028.53
2018-09-22T22:37:41.518Z,100036.55
2018-09-22T22:40:10.079Z,100037.02
2018-09-22T22:42:38.868Z,100029.61
2018-09-22T22:45:07.580Z,100026.09
2018-09-22T22:47:36.255Z,100031.55
2018-09-22T22:50:05.316Z,100031.16
2018-09-22T22:52:33.810Z,100024.60
2018-09-22T22:55:02.332Z,100022.05
2018-09-22T22:57:31.053Z,100004.44
2018-09-22T22:59:59.611Z,99998.35
2018-09-22T23:02:28.298Z,99999.28
2018-09-22T23:04:56.914Z,100001.15
2018-09-22T23:07:25.472Z,99991.09
2018-09-22T23:09:53.993Z,99992.41
2018-09-22T23:12:23.017Z,99992.87
2018-09-22T23:14:51.711Z,99998.64
2018-09-22T23:17:20.397Z,100001.37
2018-09-22T23:19:48.998Z,99998.79
2018-09-22T23:22:17.529Z,99990.05
2018-09-22T23:24:46.212Z,99991.38
2018-09-22T23:27:15.875Z,99994.49
2018-09-22T23:29:44.623Z,99989.66
2018-09-22T23:32:14.008Z,99987.48
2018-09-22T23:34:42.777Z,99988.91
2018-09-22T23:37:11.357Z,99992.48
2018-09-22T23:39:40.869Z,99981.96
2018-09-22T23:42:09.527Z,99983.75
2018-09-22T23:44:39.105Z,99980.71
2018-09-22T23:47:07.692Z,99977.67
2018-09-22T23:49:37.352Z,99972.91
2018-09-22T23:52:05.908Z,99972.13
2018-09-22T23:54:34.610Z,99967.36
2018-09-22T23:57:03.233Z,99962.53
2018-09-22T23:59:31.908Z,99962.20
